createdAt,value
2019-03-02T00:02:02.921Z,24.60
2019-03-02T00:04:30.664Z,24.23
2019-03-02T00:06:59.101Z,24.10
2019-03-02T00:09:27.262Z,26.40
2019-03-02T00:11:56.633Z,27.03
2019-03-02T00:14:25.221Z,26.57
2019-03-02T00:16:52.767Z,26.73
2019-03-02T00:19:22.839Z,27.13
2019-03-02T00:21:50.388Z,28.77
2019-03-02T00:24:18.292Z,28.67
2019-03-02T00:26:46.877Z,28.40
2019-03-02T00:29:14.430Z,29.63
2019-03-02T00:31:41.988Z,27.27
2019-03-02T00:34:09.506Z,26.90
2019-03-02T00:36:37.108Z,25.70
2019-03-02T00:39:05.787Z,25.57
2019-03-02T00:41:33.223Z,25.07
2019-03-02T00:44:03.825Z,24.87
2019-03-02T00:46:30.167Z,24.93
2019-03-02T00:48:57.758Z,25.47
2019-03-02T00:51:25.408Z,25.83
2019-03-02T00:53:52.808Z,24.57
2019-03-02T00:56:20.352Z,22.20
2019-03-02T00:58:47.988Z,22.53
2019-03-02T01:01:16.203Z,23.07
2019-03-02T01:03:43.598Z,20.60
2019-03-02T01:06:12.607Z,20.23
2019-03-02T01:08:45.190Z,22.70
2019-03-02T01:11:12.724Z,22.00
2019-03-02T01:13:40.098Z,23.97
2019-03-02T01:16:07.596Z,23.93
2019-03-02T01:18:38.782Z,24.40
2019-03-02T01:21:05.120Z,24.73
2019-03-02T01:23:32.687Z,25.07
2019-03-02T01:26:00.176Z,25.30
2019-03-02T01:28:27.756Z,24.90
2019-03-02T01:30:55.476Z,24.77
2019-03-02T01:33:25.254Z,24.87
2019-03-02T01:35:53.902Z,27.30
2019-03-02T01:38:22.466Z,27.40
2019-03-02T01:40:50.383Z,26.53
2019-03-02T01:43:17.913Z,26.73
2019-03-02T01:45:46.144Z,26.80
2019-03-02T01:48:13.741Z,26.07
2019-03-02T01:50:43.896Z,26.27
2019-03-02T01:53:11.175Z,25.70
2019-03-02T01:55:38.800Z,24.40
2019-03-02T01:58:06.988Z,23.73
2019-03-02T02:00:34.809Z,23.47
2019-03-02T02:03:02.721Z,23.90
2019-03-02T02:05:32.062Z,24.33
2019-03-02T02:08:00.003Z,25.57
2019-03-02T02:10:28.147Z,25.73
2019-03-02T02:12:56.101Z,27.20
2019-03-02T02:15:25.947Z,27.33
2019-03-02T02:17:54.134Z,26.63
2019-03-02T02:20:22.252Z,25.57
2019-03-02T02:22:49.914Z,25.27
2019-03-02T02:25:18.277Z,24.30
2019-03-02T02:27:47.332Z,25.00
2019-03-02T02:30:26.795Z,24.60
2019-03-02T02:33:03.173Z,26.17
2019-03-02T02:35:26.296Z,25.60
2019-03-02T02:37:57.245Z,25.00
2019-03-02T02:40:24.961Z,23.60
2019-03-02T02:42:52.736Z,24.00
2019-03-02T02:45:22.620Z,23.07
2019-03-02T02:47:53.724Z,22.97
2019-03-02T02:50:28.201Z,23.03
2019-03-02T02:52:50.195Z,22.93
2019-03-02T02:55:17.790Z,22.23
2019-03-02T02:57:45.823Z,21.10
2019-03-02T03:00:18.245Z,22.40
2019-03-02T03:02:45.981Z,23.87
2019-03-02T03:05:15.186Z,21.67
2019-03-02T03:07:51.895Z,21.60
2019-03-02T03:15:56.222Z,21.70
2019-03-02T03:18:24.811Z,22.17
2019-03-02T03:20:54.443Z,22.77
2019-03-02T03:23:24.917Z,20.87
2019-03-02T03:25:56.127Z,21.37
2019-03-02T03:28:21.247Z,21.13
2019-03-02T03:30:48.661Z,21.93
2019-03-02T03:33:16.300Z,22.30
2019-03-02T03:35:44.574Z,21.00
2019-03-02T03:38:12.359Z,20.73
2019-03-02T03:40:40.049Z,20.87
2019-03-02T03:43:07.857Z,21.93
2019-03-02T03:45:42.555Z,21.13
2019-03-02T03:48:04.884Z,20.77
2019-03-02T03:50:32.383Z,20.13
2019-03-02T03:52:59.996Z,19.77
2019-03-02T03:55:27.693Z,19.77
2019-03-02T03:58:00.274Z,19.53
2019-03-02T04:00:24.761Z,20.00
2019-03-02T04:03:13.648Z,20.37
2019-03-02T04:05:42.053Z,19.73
2019-03-02T04:08:11.195Z,18.90
2019-03-02T04:10:38.593Z,18.60
2019-03-02T04:13:06.542Z,19.10
2019-03-02T04:15:40.671Z,18.73
2019-03-02T04:19:01.117Z,18.20
2019-03-02T04:21:31.100Z,16.73
2019-03-02T04:24:01.291Z,17.40
2019-03-02T04:26:31.436Z,17.93
2019-03-02T04:28:57.771Z,17.80
2019-03-02T04:31:25.818Z,16.97
2019-03-02T04:33:53.422Z,17.10
2019-03-02T04:36:20.929Z,17.83
2019-03-02T04:38:48.616Z,16.63
2019-03-02T04:41:16.280Z,16.40
2019-03-02T04:43:43.720Z,18.47
2019-03-02T04:46:11.730Z,17.80
2019-03-02T04:48:40.302Z,26.80
2019-03-02T04:51:07.891Z,26.73
2019-03-02T04:53:35.351Z,28.10
2019-03-02T04:56:02.675Z,26.07
2019-03-02T04:58:30.586Z,26.20
2019-03-02T05:00:57.965Z,26.00
2019-03-02T05:03:26.008Z,25.23
2019-03-02T05:05:53.599Z,24.80
2019-03-02T05:08:21.386Z,24.63
2019-03-02T05:10:49.004Z,22.93
2019-03-02T05:13:16.959Z,23.70
2019-03-02T05:15:44.729Z,23.13
2019-03-02T05:18:14.760Z,25.20
2019-03-02T05:20:42.343Z,23.97
2019-03-02T05:23:09.932Z,24.40
2019-03-02T05:25:37.631Z,23.90
2019-03-02T05:28:07.286Z,23.80
2019-03-02T05:30:34.878Z,23.40
2019-03-02T05:33:02.649Z,21.77
2019-03-02T05:35:29.994Z,22.73
2019-03-02T05:37:57.778Z,22.53
2019-03-02T05:40:27.978Z,21.90
2019-03-02T05:42:56.244Z,22.10
2019-03-02T05:45:24.717Z,22.80
2019-03-02T05:47:52.239Z,22.97
2019-03-02T05:50:19.578Z,23.00
2019-03-02T05:52:47.298Z,21.63
2019-03-02T05:55:18.032Z,22.67
2019-03-02T05:57:46.363Z,22.47
2019-03-02T06:00:14.516Z,23.03
2019-03-02T06:02:42.288Z,23.77
2019-03-02T06:05:10.285Z,23.60
2019-03-02T06:07:38.677Z,22.60
2019-03-02T06:10:06.805Z,23.77
2019-03-02T06:12:34.368Z,23.57
2019-03-02T06:15:04.092Z,23.50
2019-03-02T06:17:33.159Z,23.87
2019-03-02T06:20:00.546Z,20.73
2019-03-02T06:22:28.200Z,17.50
2019-03-02T06:24:56.598Z,17.03
2019-03-02T06:27:24.326Z,17.10
2019-03-02T06:29:51.659Z,16.87
2019-03-02T06:32:19.014Z,18.03
2019-03-02T06:34:47.168Z,16.70
2019-03-02T06:37:17.009Z,17.53
2019-03-02T06:39:45.163Z,17.10
2019-03-02T06:42:13.018Z,17.20
2019-03-02T06:44:40.429Z,18.17
2019-03-02T06:47:07.753Z,17.77
2019-03-02T06:49:35.210Z,19.33
2019-03-02T06:52:02.877Z,19.43
2019-03-02T06:54:30.633Z,18.43
2019-03-02T06:56:58.257Z,19.63
2019-03-02T06:59:26.152Z,19.33
2019-03-02T07:01:56.551Z,17.60
2019-03-02T07:04:23.151Z,16.87
2019-03-02T07:06:50.950Z,18.17
2019-03-02T07:09:18.592Z,19.83
2019-03-02T07:11:46.333Z,18.67
2019-03-02T07:14:13.740Z,17.23
2019-03-02T07:16:41.465Z,16.07
2019-03-02T07:19:33.142Z,16.23
2019-03-02T07:22:00.734Z,17.50
2019-03-02T07:24:29.502Z,15.10
2019-03-02T07:26:57.867Z,16.73
2019-03-02T07:29:25.239Z,17.50
2019-03-02T07:31:52.636Z,16.27
2019-03-02T07:34:21.323Z,16.97
2019-03-02T07:36:48.927Z,18.10
2019-03-02T07:39:16.813Z,17.83
2019-03-02T07:41:44.273Z,17.13
2019-03-02T07:44:11.616Z,17.13
2019-03-02T07:46:38.904Z,17.53
2019-03-02T07:49:09.173Z,18.00
2019-03-02T07:51:37.896Z,16.47
2019-03-02T07:54:06.156Z,17.80
2019-03-02T07:56:35.343Z,16.10
2019-03-02T07:59:03.299Z,16.87
2019-03-02T08:01:31.450Z,16.73
2019-03-02T08:04:00.954Z,16.63
2019-03-02T08:06:28.986Z,16.60
2019-03-02T08:08:57.493Z,16.13
2019-03-02T08:11:25.554Z,17.53
2019-03-02T08:13:53.799Z,20.33
2019-03-02T08:16:21.871Z,16.57
2019-03-02T08:18:49.874Z,16.93
2019-03-02T08:21:17.576Z,15.30
2019-03-02T08:23:45.534Z,16.13
2019-03-02T08:26:13.355Z,16.43
2019-03-02T08:28:42.116Z,15.47
2019-03-02T08:31:11.610Z,16.30
2019-03-02T08:33:45.675Z,16.33
2019-03-02T08:36:09.076Z,14.73
2019-03-02T08:38:37.353Z,15.13
2019-03-02T08:41:05.303Z,13.70
2019-03-02T08:43:33.492Z,13.50
2019-03-02T08:46:03.653Z,12.87
2019-03-02T08:48:31.162Z,12.63
2019-03-02T08:50:58.928Z,12.57
2019-03-02T08:53:27.123Z,13.07
2019-03-02T08:55:55.117Z,13.43
2019-03-02T08:58:23.480Z,12.33
2019-03-02T09:00:51.616Z,12.47
2019-03-02T09:03:19.824Z,12.03
2019-03-02T09:05:51.431Z,12.37
2019-03-02T09:08:17.842Z,13.60
2019-03-02T09:10:45.961Z,13.07
2019-03-02T09:13:15.249Z,13.43
2019-03-02T09:15:43.202Z,12.70
2019-03-02T09:18:10.890Z,12.60
2019-03-02T09:20:38.668Z,12.57
2019-03-02T09:23:07.601Z,13.77
2019-03-02T09:25:35.759Z,13.00
2019-03-02T09:28:04.084Z,13.13
2019-03-02T09:30:36.486Z,13.50
2019-03-02T09:33:04.437Z,13.33
2019-03-02T09:35:33.421Z,12.53
2019-03-02T09:38:01.513Z,12.13
2019-03-02T09:40:29.487Z,11.57
2019-03-02T09:42:57.366Z,10.60
2019-03-02T09:45:27.579Z,7.87
2019-03-02T09:47:55.212Z,8.03
2019-03-02T09:50:23.559Z,8.10
2019-03-02T09:52:52.218Z,8.20
2019-03-02T09:55:20.431Z,8.50
2019-03-02T09:57:48.570Z,8.43
2019-03-02T10:00:19.191Z,8.30
2019-03-02T10:02:50.103Z,8.33
2019-03-02T10:05:18.662Z,8.17
2019-03-02T10:07:48.508Z,8.20
2019-03-02T10:10:16.387Z,6.90
2019-03-02T10:12:47.165Z,6.90
2019-03-02T10:15:15.821Z,7.00
2019-03-02T10:17:43.628Z,7.47
2019-03-02T10:20:11.751Z,8.60
2019-03-02T10:22:40.480Z,7.70
2019-03-02T10:25:11.454Z,7.97
2019-03-02T10:27:39.535Z,7.63
2019-03-02T10:30:17.912Z,8.10
2019-03-02T10:32:45.636Z,7.77
2019-03-02T10:35:17.012Z,7.17
2019-03-02T10:37:43.535Z,7.67
2019-03-02T10:40:12.409Z,7.60
2019-03-02T10:42:40.423Z,7.83
2019-03-02T10:45:10.818Z,7.60
2019-03-02T10:47:38.507Z,8.60
2019-03-02T10:50:10.625Z,8.23
2019-03-02T10:52:38.819Z,8.07
2019-03-02T10:55:08.328Z,8.43
2019-03-02T10:57:36.895Z,7.63
2019-03-02T11:00:05.334Z,8.73
2019-03-02T11:02:34.146Z,8.33
2019-03-02T11:05:30.211Z,7.73
2019-03-02T11:08:21.711Z,7.50
2019-03-02T11:11:08.437Z,7.10
2019-03-02T11:13:58.787Z,7.10
2019-03-02T11:16:47.805Z,6.97
2019-03-02T11:19:35.830Z,6.77
2019-03-02T11:22:41.234Z,7.77
2019-03-02T11:25:27.558Z,7.90
2019-03-02T11:28:13.624Z,7.47
2019-03-02T11:30:53.485Z,7.33
2019-03-02T11:33:33.750Z,7.60
2019-03-02T11:36:23.822Z,7.07
2019-03-02T11:39:29.465Z,8.33
2019-03-02T11:42:15.627Z,8.40
2019-03-02T11:45:06.387Z,6.87
2019-03-02T11:48:00.021Z,6.57
2019-03-02T11:50:57.803Z,6.60
2019-03-02T11:53:57.062Z,6.27
2019-03-02T11:56:46.741Z,9.03
2019-03-02T11:59:25.128Z,7.33
2019-03-02T12:02:15.580Z,7.13
2019-03-02T12:05:15.587Z,8.10
2019-03-02T12:08:02.792Z,8.83
2019-03-02T12:10:48.660Z,7.27
2019-03-02T12:13:31.549Z,8.27
2019-03-02T12:16:22.228Z,7.93
2019-03-02T12:19:15.627Z,7.97
2019-03-02T12:22:04.159Z,8.03
2019-03-02T12:24:54.741Z,8.70
2019-03-02T12:27:44.426Z,8.70
2019-03-02T12:30:30.079Z,9.13
2019-03-02T12:33:21.917Z,9.90
2019-03-02T12:35:57.276Z,9.87
2019-03-02T12:38:48.063Z,10.30
2019-03-02T12:41:27.508Z,10.07
2019-03-02T12:44:17.507Z,10.30
2019-03-02T12:47:03.954Z,10.43
2019-03-02T12:49:50.797Z,10.67
2019-03-02T12:52:56.006Z,10.50
2019-03-02T12:55:38.905Z,10.67
2019-03-02T12:58:11.500Z,10.40
2019-03-02T13:00:56.344Z,10.53
2019-03-02T13:03:42.884Z,10.23
2019-03-02T13:06:32.250Z,10.87
2019-03-02T13:09:21.708Z,10.60
2019-03-02T13:12:07.133Z,10.43
2019-03-02T13:14:52.909Z,10.57
2019-03-02T13:17:43.205Z,10.63
2019-03-02T13:20:35.704Z,11.50
2019-03-02T13:23:13.979Z,11.00
2019-03-02T13:26:14.684Z,11.23
2019-03-02T13:28:53.349Z,11.33
2019-03-02T13:31:31.796Z,11.80
2019-03-02T13:34:34.880Z,11.73
2019-03-02T13:37:08.458Z,12.10
2019-03-02T13:40:01.412Z,13.00
2019-03-02T13:42:51.014Z,12.07
2019-03-02T13:45:26.650Z,12.53
2019-03-02T13:48:13.718Z,12.43
2019-03-02T13:51:03.776Z,12.57
2019-03-02T13:53:42.750Z,12.60
2019-03-02T13:56:22.181Z,12.97
2019-03-02T13:59:01.689Z,12.00
2019-03-02T14:01:38.960Z,12.27
2019-03-02T14:04:39.039Z,12.70
2019-03-02T14:07:31.214Z,12.57
2019-03-02T14:10:25.144Z,12.50
2019-03-02T14:13:11.391Z,12.60
2019-03-02T14:16:04.676Z,13.13
2019-03-02T14:18:57.439Z,13.30
2019-03-02T14:21:47.944Z,12.63
2019-03-02T14:24:27.224Z,13.27
2019-03-02T14:27:14.666Z,13.73
2019-03-02T14:29:53.316Z,12.93
2019-03-02T14:32:51.535Z,12.67
2019-03-02T14:35:46.178Z,12.97
2019-03-02T14:38:35.588Z,12.33
2019-03-02T14:41:30.076Z,13.30
2019-03-02T14:44:15.829Z,13.83
2019-03-02T14:47:07.901Z,13.70
2019-03-02T14:49:54.014Z,13.77
2019-03-02T14:52:49.676Z,13.77
2019-03-02T14:55:35.687Z,16.07
2019-03-02T14:58:13.487Z,13.60
2019-03-02T15:01:09.623Z,13.77
2019-03-02T15:04:07.297Z,13.97
2019-03-02T15:06:57.842Z,13.83
2019-03-02T15:09:50.932Z,14.83
2019-03-02T15:12:48.482Z,14.47
2019-03-02T15:15:33.036Z,14.90
2019-03-02T15:18:32.088Z,15.13
2019-03-02T15:21:11.646Z,14.80
2019-03-02T15:23:57.417Z,15.17
2019-03-02T15:26:47.374Z,18.37
2019-03-02T15:29:46.306Z,18.97
2019-03-02T15:32:25.514Z,17.03
2019-03-02T15:35:19.547Z,16.67
2019-03-02T15:38:04.397Z,17.40
2019-03-02T15:40:36.987Z,17.60
2019-03-02T15:43:31.291Z,18.27
2019-03-02T15:46:17.560Z,17.90
2019-03-02T15:49:03.527Z,18.07
2019-03-02T15:51:59.701Z,18.70
2019-03-02T15:54:44.529Z,19.77
2019-03-02T15:57:39.993Z,19.43
2019-03-02T16:00:32.357Z,18.83
2019-03-02T16:03:18.710Z,20.23
2019-03-02T16:06:03.984Z,18.60
2019-03-02T16:08:52.374Z,20.20
2019-03-02T16:11:52.570Z,20.53
2019-03-02T16:14:32.701Z,21.00
2019-03-02T16:17:19.850Z,19.50
2019-03-02T16:19:57.052Z,20.23
2019-03-02T16:22:46.559Z,20.83
2019-03-02T16:25:35.954Z,20.17
2019-03-02T16:28:42.666Z,22.03
2019-03-02T16:31:17.155Z,21.60
2019-03-02T16:34:04.293Z,22.20
2019-03-02T16:37:04.081Z,21.77
2019-03-02T16:39:51.106Z,21.87
2019-03-02T16:42:28.106Z,27.90
2019-03-02T16:45:13.719Z,22.47
2019-03-02T16:47:52.778Z,22.77
2019-03-02T16:50:31.376Z,21.13
2019-03-02T16:53:18.931Z,22.20
2019-03-02T16:56:04.901Z,22.43
2019-03-02T16:58:40.693Z,22.73
2019-03-02T17:01:27.622Z,21.73
2019-03-02T17:04:23.816Z,23.17
2019-03-02T17:06:57.478Z,22.20
2019-03-02T17:09:47.131Z,24.17
2019-03-02T17:12:28.014Z,25.03
2019-03-02T17:15:14.340Z,24.77
2019-03-02T17:18:08.429Z,23.27
2019-03-02T17:21:04.199Z,23.00
2019-03-02T17:24:04.934Z,23.80
2019-03-02T17:26:56.121Z,24.23
2019-03-02T17:29:48.673Z,24.47
2019-03-02T17:32:39.414Z,23.97
2019-03-02T17:35:41.246Z,24.50
2019-03-02T17:38:51.296Z,25.63
2019-03-02T17:41:35.342Z,27.93
2019-03-02T17:44:18.832Z,27.87
2019-03-02T17:47:05.564Z,25.97
2019-03-02T17:49:44.667Z,26.07
2019-03-02T17:52:30.826Z,27.07
2019-03-02T17:55:43.146Z,28.03
2019-03-02T17:58:20.382Z,26.10
2019-03-02T18:01:07.221Z,24.73
2019-03-02T18:04:00.268Z,27.90
2019-03-02T18:06:55.858Z,25.03
2019-03-02T18:10:06.810Z,23.43
2019-03-02T18:12:57.613Z,23.60
2019-03-02T18:15:42.788Z,24.13
2019-03-02T18:18:11.272Z,25.30
2019-03-02T18:20:40.463Z,23.93
2019-03-02T18:23:08.921Z,23.97
2019-03-02T18:25:37.667Z,23.57
2019-03-02T18:28:05.530Z,24.53
2019-03-02T18:30:33.888Z,25.00
2019-03-02T18:33:21.413Z,23.87
2019-03-02T18:35:49.889Z,24.00
2019-03-02T18:38:17.644Z,23.97
2019-03-02T18:40:45.940Z,24.60
2019-03-02T18:43:14.436Z,24.43
2019-03-02T18:45:42.994Z,24.60
2019-03-02T18:48:20.813Z,33.80
2019-03-02T18:50:59.622Z,24.87
2019-03-02T18:53:29.343Z,23.43
2019-03-02T18:55:57.903Z,26.23
2019-03-02T18:58:27.616Z,25.00
2019-03-02T19:00:57.644Z,25.57
2019-03-02T19:03:25.926Z,24.37
2019-03-02T19:05:54.568Z,25.30
2019-03-02T19:08:22.582Z,23.97
2019-03-02T19:10:51.839Z,26.73
2019-03-02T19:13:19.961Z,25.57
2019-03-02T19:15:53.729Z,26.23
2019-03-02T19:18:17.208Z,26.50
2019-03-02T19:20:45.027Z,27.40
2019-03-02T19:23:12.652Z,24.83
2019-03-02T19:25:53.800Z,24.13
2019-03-02T19:28:21.911Z,26.33
2019-03-02T19:30:49.565Z,26.00
2019-03-02T19:33:17.323Z,25.67
2019-03-02T19:35:45.446Z,25.90
2019-03-02T19:38:13.481Z,25.87
2019-03-02T19:40:41.441Z,25.50
2019-03-02T19:43:09.231Z,26.10
2019-03-02T19:45:36.978Z,26.17
2019-03-02T19:48:04.869Z,25.60
2019-03-02T19:50:32.652Z,26.13
2019-03-02T19:53:00.535Z,26.73
2019-03-02T19:55:28.565Z,26.57
2019-03-02T19:57:56.147Z,26.80
2019-03-02T20:00:25.894Z,26.40
2019-03-02T20:02:53.549Z,27.73
2019-03-02T20:05:21.733Z,27.30
2019-03-02T20:07:49.747Z,26.87
2019-03-02T20:10:18.041Z,30.17
2019-03-02T20:12:46.579Z,27.63
2019-03-02T20:15:17.208Z,27.00
2019-03-02T20:17:44.948Z,27.57
2019-03-02T20:20:13.782Z,27.30
2019-03-02T20:22:41.796Z,29.30
2019-03-02T20:25:11.757Z,29.83
2019-03-02T20:27:39.765Z,27.53
2019-03-02T20:30:10.257Z,29.83
2019-03-02T20:32:37.973Z,29.40
2019-03-02T20:35:08.499Z,28.43
2019-03-02T20:37:36.156Z,28.43
2019-03-02T20:40:05.163Z,29.63
2019-03-02T20:42:33.358Z,29.93
2019-03-02T20:45:01.029Z,29.83
2019-03-02T20:47:29.377Z,29.90
2019-03-02T20:49:57.070Z,29.63
2019-03-02T20:52:24.937Z,29.10
2019-03-02T20:54:53.249Z,29.43
2019-03-02T20:57:20.974Z,29.60
2019-03-02T20:59:48.623Z,28.77
2019-03-02T21:02:17.000Z,28.47
2019-03-02T21:04:44.693Z,29.00
2019-03-02T21:07:12.860Z,29.83
2019-03-02T21:09:40.804Z,29.27
2019-03-02T21:12:08.771Z,28.47
2019-03-02T21:14:36.501Z,28.87
2019-03-02T21:17:04.261Z,29.70
2019-03-02T21:19:32.134Z,29.00
2019-03-02T21:21:59.835Z,27.90
2019-03-02T21:24:27.854Z,28.63
2019-03-02T21:26:55.893Z,27.67
2019-03-02T21:29:23.426Z,29.77
2019-03-02T21:31:51.567Z,28.53
2019-03-02T21:34:19.123Z,28.67
2019-03-02T21:36:47.161Z,27.93
2019-03-02T21:39:15.153Z,27.37
2019-03-02T21:41:42.888Z,26.60
2019-03-02T21:44:11.452Z,27.47
2019-03-02T21:46:39.203Z,27.93
2019-03-02T21:49:06.794Z,26.63
2019-03-02T21:51:34.887Z,26.33
2019-03-02T21:54:02.555Z,26.10
2019-03-02T21:56:30.192Z,24.63
2019-03-02T21:58:57.925Z,25.70
2019-03-02T22:01:25.539Z,25.67
2019-03-02T22:03:53.432Z,26.23
2019-03-02T22:06:21.146Z,25.90
2019-03-02T22:08:48.800Z,25.20
2019-03-02T22:11:16.576Z,25.13
2019-03-02T22:13:44.211Z,26.33
2019-03-02T22:16:12.484Z,25.00
2019-03-02T22:18:40.189Z,24.57
2019-03-02T22:21:07.962Z,25.13
2019-03-02T22:23:35.578Z,24.97
2019-03-02T22:26:03.682Z,24.20
2019-03-02T22:28:31.327Z,23.70
2019-03-02T22:30:59.659Z,24.40
2019-03-02T22:33:27.975Z,23.60
2019-03-02T22:35:55.594Z,23.20
2019-03-02T22:38:23.484Z,23.70
2019-03-02T22:40:51.124Z,23.30
2019-03-02T22:43:18.818Z,22.03
2019-03-02T22:45:47.022Z,22.03
2019-03-02T22:48:14.996Z,22.30
2019-03-02T22:50:42.557Z,21.43
2019-03-02T22:53:10.076Z,20.87
2019-03-02T22:55:38.145Z,20.33
2019-03-02T22:58:05.697Z,19.87
2019-03-02T23:01:10.935Z,21.20
2019-03-02T23:03:37.355Z,20.20
2019-03-02T23:06:04.767Z,19.13
2019-03-02T23:08:33.122Z,19.07
2019-03-02T23:11:00.575Z,18.90
2019-03-02T23:13:28.311Z,18.40
2019-03-02T23:15:55.891Z,18.93
2019-03-02T23:18:23.550Z,17.97
2019-03-02T23:20:51.244Z,18.03
2019-03-02T23:23:19.084Z,17.27
2019-03-02T23:25:46.738Z,18.27
2019-03-02T23:28:14.282Z,18.03
2019-03-02T23:30:41.865Z,18.10
2019-03-02T23:33:10.017Z,16.77
2019-03-02T23:35:37.967Z,17.00
2019-03-02T23:38:05.907Z,17.87
2019-03-02T23:40:33.736Z,16.13
2019-03-02T23:43:01.791Z,16.87
2019-03-02T23:45:29.521Z,15.70
2019-03-02T23:47:57.129Z,16.70
2019-03-02T23:50:24.708Z,15.13
2019-03-02T23:52:52.430Z,15.47
2019-03-02T23:55:20.202Z,15.40
2019-03-02T23:57:47.751Z,14.83
